Time;durP1;ratioP1;P1;durP2;ratioP2;P2;SDS_P1;SDS_P2;PMS_P1;PMS_P2;Temp;Humidity;BMP_temperature;BMP_pressure;BME280_temperature;BME280_humidity;BME280_pressure;Samples;Min_cycle;Max_cycle;Signal;HPM_P1;HPM_P2
2022/01/12 00:01:15;;;;;;;32.30;17.40;;;;;;;-0.90;83.58;97305.16;4817052;29;20053;-42
2022/01/12 00:03:44;;;;;;;29.35;17.52;;;;;;;-0.90;82.26;97313.13;4825800;29;20073;-43
2022/01/12 00:06:12;;;;;;;31.33;16.48;;;;;;;-0.66;81.89;97302.56;4822881;29;20081;-42
2022/01/12 00:08:39;;;;;;;28.80;16.25;;;;;;;-0.67;81.94;97319.56;4823118;29;20044;-40
2022/01/12 00:11:07;;;;;;;31.02;17.13;;;;;;;-0.66;81.41;97314.00;4817497;29;20054;-41
2022/01/12 00:13:36;;;;;;;33.38;18.25;;;;;;;-0.62;81.27;97317.81;4826441;29;20504;-46
2022/01/12 00:16:04;;;;;;;33.58;17.67;;;;;;;-0.64;81.28;97317.25;4825280;29;20078;-42
2022/01/12 00:18:33;;;;;;;31.98;17.00;;;;;;;-0.61;81.72;97321.31;4822415;29;20042;-42
2022/01/12 00:20:59;;;;;;;32.67;16.95;;;;;;;-0.51;81.49;97318.91;4815197;29;20648;-40
2022/01/12 00:23:27;;;;;;;33.40;18.55;;;;;;;-1.50;84.84;97313.81;4818633;29;20051;-40
2022/01/12 00:26:04;;;;;;;30.52;17.40;;;;;;;-0.76;82.68;97327.84;4822530;29;20466;-40
2022/01/12 00:34:17;;;;;;;31.70;17.50;;;;;;;-0.51;80.96;97316.25;4822941;29;20058;-40
2022/01/12 00:36:44;;;;;;;33.28;17.98;;;;;;;-0.86;82.16;97308.16;4807414;29;20537;-40
2022/01/12 00:39:11;;;;;;;29.75;16.75;;;;;;;-0.95;82.24;97320.94;4828026;29;20142;-40
2022/01/12 00:41:40;;;;;;;32.10;18.65;;;;;;;-1.12;83.52;97320.75;4819977;29;20401;-40
2022/01/12 00:44:10;;;;;;;34.95;18.80;;;;;;;-1.08;82.84;97313.94;4810353;29;20073;-41
2022/01/12 00:46:39;;;;;;;32.80;18.02;;;;;;;-1.00;82.31;97320.81;4810308;29;20508;-42
2022/01/12 00:49:06;;;;;;;33.45;18.10;;;;;;;-1.24;83.76;97319.88;4827179;29;20162;-41
2022/01/12 00:51:37;;;;;;;33.70;18.50;;;;;;;-1.18;83.67;97311.81;4817413;29;20497;-41
2022/01/12 00:54:04;;;;;;;32.33;18.48;;;;;;;-0.87;82.32;97320.63;4838285;29;20049;-41
2022/01/12 00:56:31;;;;;;;33.97;18.17;;;;;;;-0.90;81.92;97309.66;4825142;29;20085;-43
2022/01/12 00:58:58;;;;;;;36.83;17.88;;;;;;;-0.97;82.15;97317.72;4826037;29;20050;-42
2022/01/12 01:01:25;;;;;;;34.33;18.48;;;;;;;-0.83;81.24;97321.00;4823325;29;20043;-42
2022/01/12 01:03:53;;;;;;;33.92;17.63;;;;;;;-0.84;81.24;97328.16;4815361;29;20481;-41
2022/01/12 01:06:22;;;;;;;33.05;16.83;;;;;;;-1.18;82.16;97326.94;4824143;29;20046;-41
2022/01/12 01:08:51;;;;;;;33.42;18.33;;;;;;;-1.94;86.40;97331.63;4823684;29;20141;-42
2022/01/12 01:11:23;;;;;;;;;;;;;;;-1.77;86.26;97329.22;4834006;29;20039;-41
2022/01/12 01:14:01;;;;;;;33.17;18.23;;;;;;;-1.09;82.62;97333.59;4838360;29;21387;-43
2022/01/12 01:27:29;;;;;;;33.80;19.10;;;;;;;-1.28;83.14;97331.97;4823528;29;20054;-47
2022/01/12 01:29:56;;;;;;;34.33;18.25;;;;;;;-1.45;84.38;97321.16;4824185;29;20072;-44
2022/01/12 01:32:25;;;;;;;34.05;18.90;;;;;;;-1.38;83.96;97316.56;4821388;29;20047;-44
2022/01/12 01:34:52;;;;;;;38.10;19.55;;;;;;;-1.29;83.18;97315.25;4808919;29;20054;-44
2022/01/12 01:37:20;;;;;;;38.38;20.33;;;;;;;-1.20;82.73;97308.59;4823998;29;20422;-44
2022/01/12 01:39:49;;;;;;;32.72;18.40;;;;;;;-1.48;84.41;97305.66;4818897;29;20074;-46
2022/01/12 01:42:30;;;;;;;35.13;19.15;;;;;;;-1.30;82.58;97310.97;4822708;29;20050;-45
2022/01/12 01:53:19;;;;;;;40.08;20.40;;;;;;;-1.74;84.39;97307.56;4816297;29;20046;-45
2022/01/12 01:55:46;;;;;;;36.72;19.90;;;;;;;-1.76;85.05;97309.63;4823131;29;20043;-49
2022/01/12 01:58:15;;;;;;;38.25;19.92;;;;;;;-1.71;84.97;97309.78;4832854;29;20113;-45
2022/01/12 02:00:43;;;;;;;38.35;20.45;;;;;;;-1.73;84.61;97309.19;4823102;29;20103;-44
2022/01/12 02:03:18;;;;;;;43.03;20.77;;;;;;;-1.80;85.56;97303.13;4819747;29;20066;-47
2022/01/12 02:05:49;;;;;;;38.10;20.00;;;;;;;-1.64;84.51;97304.41;4823156;29;20121;-46
2022/01/12 02:08:16;;;;;;;42.42;21.02;;;;;;;-1.97;86.06;97302.09;4827371;29;20141;-45
2022/01/12 02:11:12;;;;;;;39.70;21.02;;;;;;;-1.77;84.88;97308.00;4816142;29;20046;-45
2022/01/12 02:13:40;;;;;;;41.17;21.98;;;;;;;-1.72;84.85;97304.72;4835548;29;20054;-43
2022/01/12 02:16:07;;;;;;;44.63;22.45;;;;;;;-1.63;84.21;97291.94;4824115;29;20473;-49
2022/01/12 02:19:03;;;;;;;40.67;21.05;;;;;;;-1.65;84.10;97305.44;4828393;29;20097;-46
2022/01/12 02:40:26;;;;;;;38.42;20.02;;;;;;;-2.70;91.08;97343.19;4820188;29;20039;-41
2022/01/12 02:51:12;;;;;;;38.97;20.75;;;;;;;-3.50;94.72;97334.00;4822043;29;20045;-41
2022/01/12 02:53:43;;;;;;;35.05;18.83;;;;;;;-3.61;96.06;97338.09;4807988;29;20069;-42
2022/01/12 02:56:19;;;;;;;38.40;20.15;;;;;;;-3.29;95.11;97341.66;4823048;29;20054;-41
2022/01/12 02:58:48;;;;;;;40.28;21.38;;;;;;;-2.81;92.69;97343.88;4823374;29;20050;-42
2022/01/12 03:04:00;;;;;;;39.55;20.67;;;;;;;-2.12;88.56;97342.19;4815462;29;20071;-44
2022/01/12 03:06:34;;;;;;;38.75;20.40;;;;;;;-1.99;88.47;97347.38;4816513;29;20039;-42
2022/01/12 03:09:03;;;;;;;42.10;22.23;;;;;;;-2.21;88.67;97356.75;4811397;29;20108;-45
2022/01/12 03:11:31;;;;;;;43.53;21.75;;;;;;;-2.10;88.60;97352.59;4822214;29;20378;-46
2022/01/12 03:14:10;;;;;;;42.20;22.02;;;;;;;-1.69;86.51;97358.16;4822597;29;20046;-47
2022/01/12 03:16:37;;;;;;;42.88;21.52;;;;;;;-2.65;90.10;97353.97;4821559;29;20043;-45
2022/01/12 03:19:09;;;;;;;42.85;21.65;;;;;;;-2.22;89.74;97355.94;4826363;29;20053;-46
2022/01/12 03:21:36;;;;;;;45.42;22.27;;;;;;;-2.38;89.73;97357.25;4825404;29;20412;-44
2022/01/12 03:24:08;;;;;;;45.70;22.52;;;;;;;-1.98;87.87;97350.84;4824588;29;20042;-45
2022/01/12 03:26:35;;;;;;;42.25;22.67;;;;;;;-2.31;89.58;97361.72;4828797;29;20046;-44
2022/01/12 03:29:04;;;;;;;36.80;18.90;;;;;;;-3.47;92.99;97368.00;4822036;29;20484;-43
2022/01/12 03:31:35;;;;;;;45.67;20.65;;;;;;;-3.72;95.86;97371.28;4818667;29;20066;-40
2022/01/12 03:34:09;;;;;;;38.72;20.00;;;;;;;-3.48;95.83;97363.69;4803806;29;20042;-41
2022/01/12 03:36:54;;;;;;;42.22;20.95;;;;;;;-3.68;96.41;97367.19;4815623;29;20050;-42
2022/01/12 03:39:22;;;;;;;41.22;20.65;;;;;;;-3.57;96.03;97369.22;4817939;29;20078;-43
2022/01/12 03:41:50;;;;;;;38.75;20.13;;;;;;;-3.69;96.23;97376.16;4823007;29;20103;-45
2022/01/12 03:44:19;;;;;;;42.95;21.10;;;;;;;-3.74;96.46;97373.31;4833074;29;20074;-43
2022/01/12 03:46:50;;;;;;;42.33;22.20;;;;;;;-2.85;92.73;97366.53;4822221;29;20050;-45
2022/01/12 03:49:20;;;;;;;42.08;20.02;;;;;;;-3.48;94.31;97379.56;4821247;29;20396;-42
2022/01/12 03:51:47;;;;;;;39.22;19.73;;;;;;;-3.55;94.28;97382.25;4820550;29;20038;-45
2022/01/12 03:54:15;;;;;;;42.03;20.38;;;;;;;-3.60;95.08;97382.88;4808501;29;20050;-44
2022/01/12 03:56:42;;;;;;;38.78;20.00;;;;;;;-3.52;94.67;97381.81;4806510;29;20090;-45
2022/01/12 03:59:09;;;;;;;43.00;21.17;;;;;;;-3.23;93.67;97383.19;4821287;29;20054;-46
2022/01/12 04:01:37;;;;;;;40.45;19.67;;;;;;;-2.79;92.00;97378.94;4814296;29;20035;-46
2022/01/12 04:04:19;;;;;;;38.72;20.58;;;;;;;-2.97;92.47;97384.09;4822241;29;20041;-45
2022/01/12 04:09:43;;;;;;;39.95;19.90;;;;;;;-2.33;88.83;97383.16;4817145;29;20074;-43
2022/01/12 04:12:12;;;;;;;41.53;20.77;;;;;;;-2.03;87.17;97387.81;4821993;29;20062;-44
2022/01/12 04:14:40;;;;;;;42.90;22.20;;;;;;;-1.98;85.63;97382.66;4827498;29;20465;-45
2022/01/12 04:17:07;;;;;;;41.33;21.13;;;;;;;-2.06;86.50;97383.75;4822263;29;20062;-45
2022/01/12 04:19:35;;;;;;;40.33;19.83;;;;;;;-1.96;86.21;97388.56;4804128;29;20139;-44
2022/01/12 04:23:16;;;;;;;42.78;21.35;;;;;;;-2.10;86.45;97382.56;4817006;29;20425;-43
2022/01/12 04:24:50;;;;;;;41.95;21.48;;;;;;;-2.48;88.67;97380.78;4821080;29;20042;-45
2022/01/12 04:27:17;;;;;;;48.17;22.55;;;;;;;-2.23;88.03;97380.81;4822310;29;20061;-45
2022/01/12 04:29:44;;;;;;;43.65;21.02;;;;;;;-2.05;87.23;97377.41;4820508;29;20101;-44
2022/01/12 04:32:12;;;;;;;44.88;21.75;;;;;;;-1.80;85.96;97384.56;4811321;29;20412;-42
2022/01/12 04:34:39;;;;;;;45.17;22.65;;;;;;;-1.55;84.62;97395.16;4820501;29;20449;-42
2022/01/12 04:37:05;;;;;;;46.30;22.42;;;;;;;-1.62;85.10;97389.13;4821060;29;20053;-44
2022/01/12 04:39:35;;;;;;;41.70;21.95;;;;;;;-1.92;86.39;97390.59;4822701;29;20046;-44
2022/01/12 04:42:03;;;;;;;45.30;20.98;;;;;;;-2.21;88.42;97380.59;4809141;29;20050;-43
2022/01/12 04:44:30;;;;;;;46.58;21.85;;;;;;;-1.96;86.90;97384.06;4823399;29;20050;-45
2022/01/12 04:47:06;;;;;;;48.00;22.10;;;;;;;-1.86;87.02;97383.59;4816942;29;20042;-44
2022/01/12 04:52:16;;;;;;;48.30;22.00;;;;;;;-1.95;87.04;97382.22;4827180;29;20049;-46
2022/01/12 04:54:43;;;;;;;43.83;21.63;;;;;;;-1.75;86.25;97377.59;4819802;29;20416;-43
2022/01/12 04:57:10;;;;;;;41.05;20.63;;;;;;;-1.81;85.56;97375.81;4820622;29;20046;-46
2022/01/12 04:59:48;;;;;;;49.38;21.88;;;;;;;-1.80;85.30;97388.03;4820720;29;20054;-46
2022/01/12 05:07:59;;;;;;;41.85;20.80;;;;;;;-3.37;94.09;97397.47;4833262;29;20478;-41
2022/01/12 05:13:00;;;;;;;45.80;21.90;;;;;;;-2.28;88.75;97396.56;4820891;29;20046;-42
2022/01/12 05:15:31;;;;;;;48.03;23.05;;;;;;;-2.36;89.16;97408.25;4812218;29;20062;-42
2022/01/12 05:17:58;;;;;;;47.63;21.45;;;;;;;-1.81;86.71;97406.84;4821052;29;20505;-41
2022/01/12 05:20:25;;;;;;;46.60;22.20;;;;;;;-2.09;86.95;97402.75;4817041;29;20042;-44
2022/01/12 05:22:52;;;;;;;43.85;22.80;;;;;;;-2.10;88.01;97400.31;4819506;29;20091;-42
2022/01/12 05:25:19;;;;;;;44.30;22.23;;;;;;;-2.40;89.28;97408.88;4823786;29;20461;-44
2022/01/12 05:27:46;;;;;;;49.03;22.55;;;;;;;-2.01;87.58;97410.44;4824578;29;20527;-43
2022/01/12 05:30:14;;;;;;;43.80;21.75;;;;;;;-1.95;86.36;97420.22;4821780;29;20050;-42
2022/01/12 05:32:43;;;;;;;48.88;22.52;;;;;;;-2.22;86.97;97416.09;4821318;29;20111;-41
2022/01/12 05:35:12;;;;;;;47.13;21.67;;;;;;;-2.01;86.24;97422.91;4823069;29;20054;-43
2022/01/12 05:37:40;;;;;;;42.72;19.98;;;;;;;-1.91;85.80;97431.19;4822057;29;20060;-47
2022/01/12 05:40:08;;;;;;;49.33;23.58;;;;;;;-1.90;85.62;97427.50;4825925;29;20111;-46
2022/01/12 05:42:38;;;;;;;47.35;22.17;;;;;;;-1.83;85.21;97432.75;4821938;29;20100;-46
2022/01/12 05:45:08;;;;;;;52.95;24.00;;;;;;;-1.79;85.61;97437.41;4823418;29;20062;-42
2022/01/12 05:50:13;;;;;;;51.60;22.98;;;;;;;-1.96;86.40;97436.31;4843415;29;20411;-42
2022/01/12 05:52:40;;;;;;;44.90;22.45;;;;;;;-1.98;85.87;97444.50;4823101;29;20051;-42
2022/01/12 05:55:09;;;;;;;49.00;21.77;;;;;;;-2.05;86.22;97429.66;4808792;29;20058;-43
2022/01/12 05:57:36;;;;;;;43.28;21.13;;;;;;;-2.94;90.39;97440.09;4823145;29;20085;-42
2022/01/12 06:00:07;;;;;;;47.13;21.10;;;;;;;-2.48;89.59;97439.09;4825696;29;20046;-44
2022/01/12 06:02:40;;;;;;;45.97;21.02;;;;;;;-2.22;87.62;97443.41;4818761;29;20068;-44
2022/01/12 06:05:14;;;;;;;48.58;22.88;;;;;;;-1.96;86.68;97450.38;4822852;29;20081;-46
2022/01/12 06:07:42;;;;;;;51.15;23.05;;;;;;;-2.00;87.21;97451.84;4823036;29;20050;-46
2022/01/12 06:10:09;;;;;;;50.65;21.90;;;;;;;-2.33;88.16;97451.25;4831874;29;20076;-46
2022/01/12 06:12:38;;;;;;;45.67;20.55;;;;;;;-2.46;89.74;97450.28;4819281;29;20049;-46
2022/01/12 06:15:07;;;;;;;49.78;23.02;;;;;;;-1.98;87.20;97443.66;4822663;29;20057;-47
2022/01/12 06:17:35;;;;;;;50.75;22.58;;;;;;;-1.81;86.12;97447.44;4822977;29;20505;-44
2022/01/12 06:20:07;;;;;;;45.63;22.40;;;;;;;-1.77;85.74;97448.63;4827956;29;20060;-45
2022/01/12 06:22:52;;;;;;;44.80;21.15;;;;;;;-1.69;85.03;97460.78;4809815;29;20485;-46
2022/01/12 06:25:19;;;;;;;44.00;21.10;;;;;;;-3.02;90.28;97463.34;4822475;29;20496;-43
2022/01/12 06:27:59;;;;;;;44.58;20.75;;;;;;;-3.61;94.76;97471.16;4823559;29;20053;-42
2022/01/12 06:32:57;;;;;;;45.20;20.67;;;;;;;-3.29;96.06;97469.50;4824319;29;20046;-46
2022/01/12 06:35:25;;;;;;;44.17;21.92;;;;;;;-2.64;92.24;97477.47;4821094;29;20504;-46
2022/01/12 06:37:53;;;;;;;47.65;21.77;;;;;;;-2.29;89.68;97476.31;4823122;29;20099;-46
2022/01/12 06:40:21;;;;;;;46.60;21.48;;;;;;;-3.01;91.72;97480.88;4822151;29;20076;-45
2022/01/12 06:42:49;;;;;;;48.90;21.88;;;;;;;-3.44;94.78;97489.31;4819464;29;20042;-44
2022/01/12 06:45:16;;;;;;;49.15;22.05;;;;;;;-2.71;92.80;97499.72;4822374;29;20057;-43
2022/01/12 06:47:46;;;;;;;47.22;21.60;;;;;;;-2.32;90.59;97503.25;4827084;29;20083;-48
2022/01/12 06:50:15;;;;;;;47.00;22.00;;;;;;;-2.10;88.79;97506.41;4810823;29;20625;-42
2022/01/12 06:52:43;;;;;;;47.28;22.73;;;;;;;-1.86;87.11;97515.44;4811863;29;20043;-45
2022/01/12 06:55:10;;;;;;;49.20;24.08;;;;;;;-1.98;87.70;97528.53;4805117;29;20517;-44
2022/01/12 06:57:37;;;;;;;49.70;22.30;;;;;;;-1.94;87.61;97530.56;4834105;29;20489;-47
2022/01/12 07:00:06;;;;;;;46.63;21.85;;;;;;;-1.89;87.17;97528.06;4822457;29;20053;-42
2022/01/12 07:02:33;;;;;;;45.50;20.83;;;;;;;-2.62;89.57;97520.47;4818410;29;20095;-43
2022/01/12 07:05:01;;;;;;;44.30;21.02;;;;;;;-3.28;92.54;97523.28;4821859;29;20073;-42
2022/01/12 07:07:28;;;;;;;43.92;20.58;;;;;;;-3.58;95.36;97513.09;4822269;29;20054;-46
2022/01/12 07:10:02;;;;;;;43.57;20.13;;;;;;;-3.53;95.59;97518.59;4821614;29;20046;-45
2022/01/12 07:12:32;;;;;;;48.38;21.40;;;;;;;-3.16;95.28;97537.50;4817940;29;20507;-47
2022/01/12 07:14:59;;;;;;;45.13;21.25;;;;;;;-2.48;91.97;97533.69;4825876;29;20099;-43
2022/01/12 07:17:26;;;;;;;46.38;21.92;;;;;;;-2.07;89.27;97535.16;4807685;29;20042;-45
2022/01/12 07:19:53;;;;;;;49.25;22.55;;;;;;;-2.14;88.44;97541.28;4813173;29;20047;-46
2022/01/12 07:22:22;;;;;;;52.25;23.15;;;;;;;-1.94;87.71;97546.50;4822062;29;20474;-45
2022/01/12 07:24:49;;;;;;;54.20;22.73;;;;;;;-2.09;88.23;97548.59;4817877;29;20057;-49
2022/01/12 07:27:19;;;;;;;48.78;23.35;;;;;;;-2.06;89.62;97544.72;4834629;29;20060;-46
2022/01/12 07:29:46;;;;;;;52.83;24.42;;;;;;;-1.76;87.93;97545.75;4826731;29;20537;-44
2022/01/12 07:32:13;;;;;;;47.75;23.00;;;;;;;-1.94;87.60;97543.84;4805437;29;20394;-46
2022/01/12 07:34:40;;;;;;;53.35;23.25;;;;;;;-2.50;90.90;97552.47;4819028;29;20050;-46
2022/01/12 07:37:07;;;;;;;47.53;21.98;;;;;;;-1.91;88.74;97566.47;4823348;29;20053;-44
2022/01/12 07:39:34;;;;;;;50.25;22.58;;;;;;;-1.83;87.66;97566.22;4821872;29;20050;-44
2022/01/12 07:42:03;;;;;;;51.80;24.10;;;;;;;-2.68;91.55;97570.84;4836558;29;20129;-45
2022/01/12 07:44:30;;;;;;;46.55;22.50;;;;;;;-2.33;90.49;97583.81;4821618;29;20050;-47
2022/01/12 07:46:57;;;;;;;51.40;23.98;;;;;;;-2.00;89.44;97579.16;4829318;29;20089;-46
2022/01/12 07:49:24;;;;;;;47.75;21.67;;;;;;;-2.22;89.44;97586.59;4827592;29;20378;-46
2022/01/12 07:51:51;;;;;;;53.17;23.25;;;;;;;-1.55;86.84;97587.09;4822889;29;20527;-47
2022/01/12 07:54:18;;;;;;;49.88;22.38;;;;;;;-1.53;86.61;97590.31;4832281;29;20156;-44
2022/01/12 07:56:44;;;;;;;52.35;22.83;;;;;;;-2.10;87.97;97591.25;4826453;29;20053;-42
2022/01/12 07:59:11;;;;;;;47.60;21.30;;;;;;;-2.29;90.49;97588.47;4822283;29;20125;-42
2022/01/12 08:01:38;;;;;;;50.05;22.10;;;;;;;-1.68;87.59;97585.31;4819505;29;20468;-47
2022/01/12 08:04:05;;;;;;;47.78;22.10;;;;;;;-1.62;87.14;97577.53;4822504;29;20046;-43
2022/01/12 08:06:32;;;;;;;47.15;21.52;;;;;;;-1.30;85.63;97595.09;4822539;29;20412;-44
2022/01/12 08:08:59;;;;;;;47.15;21.02;;;;;;;-1.21;84.77;97593.78;4823037;29;20448;-44
2022/01/12 08:11:26;;;;;;;51.47;22.17;;;;;;;-1.33;85.80;97592.03;4815663;29;20046;-46
2022/01/12 08:13:53;;;;;;;48.00;21.63;;;;;;;-1.33;85.20;97592.84;4821322;29;20058;-43
2022/01/12 08:16:20;;;;;;;46.20;22.15;;;;;;;-1.54;85.90;97598.50;4822557;29;20046;-42
2022/01/12 08:18:47;;;;;;;49.75;23.23;;;;;;;-1.32;85.31;97601.63;4822542;29;20062;-43
2022/01/12 08:21:14;;;;;;;47.72;22.30;;;;;;;-1.46;85.98;97599.06;4817736;29;20046;-42
2022/01/12 08:23:41;;;;;;;46.88;21.65;;;;;;;-1.34;85.55;97599.19;4831475;29;20046;-44
2022/01/12 08:26:08;;;;;;;49.22;21.58;;;;;;;-1.18;84.70;97606.63;4822539;29;20046;-46
2022/01/12 08:28:35;;;;;;;49.33;21.63;;;;;;;-1.93;87.41;97603.81;4823091;29;20080;-44
2022/01/12 08:31:02;;;;;;;47.42;21.25;;;;;;;-1.69;87.74;97604.94;4838023;29;20058;-46
2022/01/12 08:33:32;;;;;;;40.05;20.13;;;;;;;-2.03;88.48;97610.59;4820627;29;20445;-45
2022/01/12 08:36:00;;;;;;;47.08;22.63;;;;;;;-1.59;87.03;97609.78;4820688;29;20508;-44
2022/01/12 08:38:27;;;;;;;42.40;21.35;;;;;;;-1.14;84.82;97608.84;4823627;29;20052;-46
2022/01/12 08:40:55;;;;;;;45.83;20.88;;;;;;;-2.03;87.11;97608.75;4821946;29;20050;-42
2022/01/12 08:43:22;;;;;;;50.47;23.65;;;;;;;-1.55;87.01;97612.81;4823543;29;20085;-42
2022/01/12 08:45:52;;;;;;;50.22;22.55;;;;;;;-2.43;89.90;97602.78;4823254;29;20111;-49
2022/01/12 08:48:20;;;;;;;49.88;20.98;;;;;;;-2.90;92.80;97605.50;4821998;29;20126;-44
2022/01/12 08:50:48;;;;;;;48.15;22.75;;;;;;;-3.05;94.67;97607.56;4825295;29;20071;-41
2022/01/12 08:53:15;;;;;;;50.05;23.58;;;;;;;-2.62;94.01;97605.28;4824052;29;20049;-42
2022/01/12 08:55:42;;;;;;;49.55;23.02;;;;;;;-2.39;92.39;97609.31;4822689;29;20051;-46
2022/01/12 08:58:09;;;;;;;49.22;22.05;;;;;;;-2.80;93.88;97597.16;4823353;29;20054;-43
2022/01/12 09:00:37;;;;;;;46.90;22.95;;;;;;;-3.02;95.19;97607.16;4817850;29;20065;-43
2022/01/12 09:03:05;;;;;;;57.17;23.52;;;;;;;-3.07;95.52;97607.75;4821751;29;20424;-45
2022/01/12 09:05:32;;;;;;;50.20;22.33;;;;;;;-2.91;95.51;97608.38;4820834;29;20564;-45
2022/01/12 09:08:00;;;;;;;51.45;23.42;;;;;;;-3.03;95.15;97610.81;4825392;29;20136;-41
2022/01/12 09:10:27;;;;;;;53.47;24.05;;;;;;;-2.42;93.64;97609.72;4818969;29;20062;-47
2022/01/12 09:12:54;;;;;;;54.47;22.63;;;;;;;-2.02;91.31;97614.88;4820752;29;20068;-44
2022/01/12 09:15:25;;;;;;;45.58;22.00;;;;;;;-1.56;88.64;97619.97;4823942;29;20039;-45
2022/01/12 09:17:53;;;;;;;52.47;22.63;;;;;;;-1.38;87.04;97621.88;4825098;29;20042;-42
2022/01/12 09:20:21;;;;;;;47.78;22.80;;;;;;;-1.51;88.37;97619.31;4827124;29;20041;-42
2022/01/12 09:22:49;;;;;;;54.10;23.25;;;;;;;-1.05;85.56;97623.50;4830052;29;20129;-42
2022/01/12 09:25:16;;;;;;;34.22;17.77;;;;;;;-0.97;84.07;97616.06;4825174;29;20055;-44
2022/01/12 09:27:43;;;;;;;32.10;16.75;;;;;;;-1.12;83.15;97625.38;4825118;29;20120;-43
2022/01/12 09:30:14;;;;;;;34.13;17.35;;;;;;;-0.92;82.29;97625.22;4826914;29;20042;-41
2022/01/12 09:32:41;;;;;;;33.25;17.95;;;;;;;-0.73;81.68;97621.59;4816519;29;20146;-42
2022/01/12 09:35:14;;;;;;;31.33;16.33;;;;;;;-0.90;81.52;97626.66;4825839;29;20453;-43
2022/01/12 09:37:41;;;;;;;31.50;17.17;;;;;;;-1.07;82.26;97617.56;4824624;29;20437;-41
2022/01/12 09:40:09;;;;;;;31.90;16.38;;;;;;;-0.95;81.61;97621.97;4818737;29;20107;-43
2022/01/12 09:42:37;;;;;;;31.80;16.92;;;;;;;-0.80;81.47;97620.84;4817371;29;20050;-46
2022/01/12 09:45:07;;;;;;;29.65;16.02;;;;;;;-0.90;81.25;97629.31;4823321;29;20050;-44
2022/01/12 09:47:34;;;;;;;29.55;15.02;;;;;;;-1.22;81.74;97629.34;4824056;29;20043;-46
2022/01/12 09:50:01;;;;;;;32.55;16.88;;;;;;;-0.95;80.81;97634.44;4823470;29;20043;-44
2022/01/12 09:52:28;;;;;;;31.42;15.93;;;;;;;-0.94;80.56;97625.47;4821684;29;20047;-46
2022/01/12 09:54:55;;;;;;;30.33;17.08;;;;;;;-1.04;80.46;97628.59;4823505;29;20050;-43
2022/01/12 09:57:22;;;;;;;32.03;16.52;;;;;;;-1.11;80.70;97619.03;4824593;29;20046;-42
2022/01/12 09:59:49;;;;;;;31.52;16.75;;;;;;;-1.01;80.46;97627.34;4828896;29;20054;-42
2022/01/12 10:02:18;;;;;;;25.38;14.15;;;;;;;-1.01;80.05;97627.34;4816464;29;20549;-45
2022/01/12 10:04:45;;;;;;;27.00;14.50;;;;;;;-1.01;79.81;97622.84;4824093;29;20489;-43
2022/01/12 10:07:14;;;;;;;32.30;15.35;;;;;;;-0.99;79.57;97610.16;4824311;29;20046;-41
2022/01/12 10:09:48;;;;;;;32.58;15.40;;;;;;;-1.53;81.25;97608.09;4827015;29;20090;-45
2022/01/12 10:12:18;;;;;;;26.60;14.82;;;;;;;-0.92;79.43;97615.41;4843449;29;20049;-47
2022/01/12 10:14:55;;;;;;;29.52;14.40;;;;;;;-1.32;79.32;97629.00;4826930;29;20046;-44
2022/01/12 10:17:36;;;;;;;27.90;15.07;;;;;;;-1.60;81.34;97615.28;4823940;29;20046;-45
2022/01/12 10:20:06;;;;;;;23.60;13.38;;;;;;;-1.60;80.11;97620.59;4823743;29;20074;-41
2022/01/12 10:22:33;;;;;;;25.80;13.77;;;;;;;-0.87;78.78;97612.13;4818945;29;20054;-46
2022/01/12 10:25:02;;;;;;;26.48;13.90;;;;;;;-1.46;78.09;97606.22;4823954;29;20064;-47
2022/01/12 10:27:38;;;;;;;26.20;13.85;;;;;;;-1.45;80.97;97598.03;4824083;29;20133;-41
2022/01/12 10:30:05;;;;;;;26.13;14.90;;;;;;;-1.12;79.23;97598.81;4823147;29;20046;-43
2022/01/12 10:32:32;;;;;;;32.00;15.77;;;;;;;-0.91;78.37;97602.94;4823668;29;20058;-45
2022/01/12 10:35:00;;;;;;;28.35;15.38;;;;;;;-0.81;77.46;97608.59;4823554;29;20485;-43
2022/01/12 10:37:27;;;;;;;27.60;15.32;;;;;;;-0.86;77.68;97603.91;4804858;29;20126;-45
2022/01/12 10:39:56;;;;;;;26.60;14.75;;;;;;;-0.95;77.83;97613.19;4803447;29;20050;-44
2022/01/12 10:42:28;;;;;;;25.55;13.95;;;;;;;-1.31;78.96;97601.41;4823112;29;20046;-41
2022/01/12 10:45:04;;;;;;;25.48;14.10;;;;;;;-1.16;78.70;97594.97;4822285;29;20113;-46
2022/01/12 10:47:34;;;;;;;27.85;14.90;;;;;;;-1.53;80.22;97592.97;4815423;29;20141;-47
2022/01/12 10:50:10;;;;;;;24.23;14.05;;;;;;;-1.28;79.35;97603.63;4797028;29;20053;-44
2022/01/12 10:52:47;;;;;;;28.33;15.18;;;;;;;-1.75;80.33;97607.63;4818151;29;20050;-44
2022/01/12 10:55:17;;;;;;;28.85;15.82;;;;;;;-1.40;80.06;97610.66;4815779;29;20042;-46
2022/01/12 10:57:46;;;;;;;25.38;13.18;;;;;;;-2.38;81.99;97610.91;4821865;29;20042;-41
2022/01/12 11:00:22;;;;;;;30.98;15.02;;;;;;;-2.48;84.16;97608.69;4812664;29;20085;-43
2022/01/12 11:02:55;;;;;;;27.00;14.45;;;;;;;-2.48;83.92;97592.00;4822690;29;20089;-43
2022/01/12 11:05:28;;;;;;;27.73;15.50;;;;;;;-1.52;81.23;97602.59;4821641;29;20063;-43
2022/01/12 11:07:55;;;;;;;29.25;15.10;;;;;;;-0.97;78.77;97602.78;4821805;29;20117;-45
2022/01/12 11:10:23;;;;;;;29.20;14.48;;;;;;;-0.66;77.40;97598.41;4822331;29;20057;-43
2022/01/12 11:12:51;;;;;;;26.40;15.02;;;;;;;-0.41;76.30;97590.38;4818575;29;20117;-42
2022/01/12 11:15:20;;;;;;;26.75;14.00;;;;;;;-0.32;75.99;97602.38;4817540;29;20054;-42
2022/01/12 11:17:51;;;;;;;26.85;15.50;;;;;;;-0.17;75.44;97606.50;4815201;29;20554;-42
2022/01/12 11:20:26;;;;;;;28.85;14.07;;;;;;;-0.52;76.83;97605.25;4817030;29;20046;-47
2022/01/12 11:23:15;;;;;;;26.60;15.18;;;;;;;-0.61;75.75;97605.75;4820905;29;20081;-45
2022/01/12 11:25:44;;;;;;;27.00;14.23;;;;;;;-0.71;75.84;97604.41;4821298;29;20467;-46
2022/01/12 11:28:15;;;;;;;26.20;14.85;;;;;;;-0.57;76.01;97601.59;4821468;29;20424;-46
2022/01/12 11:30:58;;;;;;;27.27;14.38;;;;;;;-0.36;75.05;97606.47;4820366;29;20082;-42
2022/01/12 11:33:30;;;;;;;26.83;14.95;;;;;;;-0.19;74.59;97604.06;4805586;29;20058;-45
2022/01/12 11:36:04;;;;;;;28.92;14.70;;;;;;;-0.05;74.04;97602.06;4822215;29;20050;-43
2022/01/12 11:38:34;;;;;;;27.15;15.32;;;;;;;-0.01;74.12;97587.25;4799028;29;20082;-41
2022/01/12 11:41:11;;;;;;;31.55;15.27;;;;;;;-0.42;74.46;97579.97;4822731;29;20416;-42
2022/01/12 11:43:44;;;;;;;31.40;15.00;;;;;;;-0.41;75.39;97590.38;4824630;29;21349;-44
2022/01/12 11:46:15;;;;;;;29.75;15.85;;;;;;;-0.61;76.89;97584.47;4821680;29;20046;-43
2022/01/12 11:48:49;;;;;;;36.58;17.55;;;;;;;-0.22;74.99;97579.75;4822211;29;20505;-43
2022/01/12 11:51:20;;;;;;;29.83;15.85;;;;;;;-0.67;76.63;97567.56;4810559;29;20047;-45
2022/01/12 11:53:51;;;;;;;27.98;15.23;;;;;;;-0.23;76.27;97578.94;4817436;29;20121;-44
2022/01/12 11:56:24;;;;;;;30.13;15.40;;;;;;;0.23;75.01;97580.22;4821972;29;20042;-42
2022/01/12 11:59:12;;;;;;;25.20;14.32;;;;;;;0.33;73.88;97577.00;4816566;29;20050;-45
2022/01/12 12:02:09;;;;;;;27.85;14.32;;;;;;;0.15;72.53;97585.84;4812259;29;20042;-42
2022/01/12 12:04:38;;;;;;;31.23;15.30;;;;;;;0.02;74.69;97586.81;4815873;29;20055;-41
2022/01/12 12:07:09;;;;;;;29.30;15.13;;;;;;;0.49;73.04;97591.50;4814226;29;20114;-45
2022/01/12 12:09:48;;;;;;;29.98;15.52;;;;;;;0.41;72.91;97596.13;4820466;29;20070;-43
2022/01/12 12:12:17;;;;;;;27.92;15.50;;;;;;;0.19;73.63;97589.66;4821029;29;20046;-42
2022/01/12 12:14:47;;;;;;;24.02;13.27;;;;;;;0.07;74.97;97588.81;4819694;29;20051;-42
2022/01/12 12:17:17;;;;;;;28.65;14.82;;;;;;;0.09;74.83;97595.53;4821376;29;20116;-43
2022/01/12 12:19:46;;;;;;;28.52;15.45;;;;;;;0.12;74.69;97608.38;4818385;29;20437;-46
2022/01/12 12:22:16;;;;;;;28.65;14.95;;;;;;;0.06;75.05;97605.81;4817521;29;20051;-45
2022/01/12 12:24:46;;;;;;;30.08;14.63;;;;;;;0.04;75.02;97614.03;4819235;29;20051;-42
2022/01/12 12:27:18;;;;;;;29.90;15.98;;;;;;;-1.48;79.28;97618.91;4822464;29;20420;-42
2022/01/12 12:29:48;;;;;;;29.40;15.30;;;;;;;-1.56;81.05;97622.63;4819968;29;20046;-47
2022/01/12 12:32:16;;;;;;;34.70;16.50;;;;;;;-1.48;81.48;97632.16;4819360;29;20325;-44
2022/01/12 12:34:45;;;;;;;30.75;16.38;;;;;;;-0.67;78.70;97614.59;4822592;29;20049;-41
2022/01/12 12:37:15;;;;;;;35.97;16.90;;;;;;;-0.73;78.76;97624.25;4825822;29;20474;-42
2022/01/12 12:39:46;;;;;;;31.85;15.73;;;;;;;-0.61;77.98;97624.34;4813430;29;20043;-42
2022/01/12 12:42:18;;;;;;;32.55;16.92;;;;;;;-0.72;77.55;97629.31;4822173;29;20046;-43